createdAt,value
2022-10-30T00:04:20.026Z,8.60
2022-10-30T00:06:53.354Z,8.66
2022-10-30T00:09:33.787Z,8.94
2022-10-30T00:16:18.820Z,8.99
2022-10-30T00:19:15.821Z,8.95
2022-10-30T00:22:36.176Z,9.05
2022-10-30T00:25:10.967Z,9.29
2022-10-30T00:27:45.578Z,9.37
2022-10-30T00:30:17.530Z,9.25
2022-10-30T00:32:55.476Z,8.99
2022-10-30T00:35:35.502Z,8.54
2022-10-30T00:38:07.178Z,8.88
2022-10-30T00:40:54.489Z,9.06
2022-10-30T00:44:00.854Z,9.23
2022-10-30T00:46:43.570Z,9.30
2022-10-30T00:49:46.808Z,9.26
2022-10-30T00:52:29.669Z,9.41
2022-10-30T00:55:22.625Z,9.42
2022-10-30T00:58:11.113Z,9.33
2022-10-30T01:00:48.412Z,9.25
2022-10-30T01:03:23.774Z,9.46
2022-10-30T01:05:58.911Z,9.27
2022-10-30T01:08:31.589Z,8.85
2022-10-30T01:11:07.297Z,9.37
2022-10-30T01:13:41.486Z,9.66
2022-10-30T01:16:21.813Z,9.35
2022-10-30T01:19:05.362Z,9.75
2022-10-30T01:21:53.822Z,9.41
2022-10-30T01:24:23.606Z,9.32
2022-10-30T01:27:15.448Z,9.55
2022-10-30T01:30:10.084Z,9.84
2022-10-30T01:32:43.567Z,9.55
2022-10-30T01:35:25.811Z,9.13
2022-10-30T01:38:20.029Z,9.29
2022-10-30T01:41:09.872Z,9.43
2022-10-30T01:43:42.696Z,9.46
2022-10-30T01:46:35.758Z,9.78
2022-10-30T01:52:34.996Z,9.44
2022-10-30T01:55:11.908Z,9.35
2022-10-30T01:58:09.358Z,9.41
2022-10-30T02:00:47.055Z,9.78
2022-10-30T02:03:20.071Z,9.54
2022-10-30T02:05:53.409Z,9.46
2022-10-30T02:08:30.843Z,9.67
2022-10-30T02:11:02.993Z,9.88
2022-10-30T02:13:39.976Z,9.71
2022-10-30T02:16:14.071Z,9.94
2022-10-30T02:18:53.663Z,9.18
2022-10-30T02:21:33.833Z,9.90
2022-10-30T02:24:03.996Z,10.34
2022-10-30T02:26:33.853Z,10.17
2022-10-30T02:29:04.408Z,10.29
2022-10-30T02:31:36.749Z,10.00
2022-10-30T02:34:05.962Z,10.08
2022-10-30T02:36:37.854Z,9.82
2022-10-30T02:39:07.564Z,10.21
2022-10-30T02:41:39.591Z,10.07
2022-10-30T02:44:14.513Z,10.22
2022-10-30T02:46:44.156Z,10.38
2022-10-30T02:49:16.084Z,10.34
2022-10-30T02:51:50.699Z,10.29
2022-10-30T02:54:20.384Z,10.38
2022-10-30T02:56:55.425Z,10.55
2022-10-30T02:59:29.051Z,10.50
2022-10-30T03:02:10.200Z,10.33
2022-10-30T03:05:04.504Z,10.52
2022-10-30T03:07:41.200Z,10.58
2022-10-30T03:10:13.199Z,10.38
2022-10-30T03:12:43.118Z,10.35
2022-10-30T03:15:12.995Z,10.60
2022-10-30T03:20:16.391Z,10.61
2022-10-30T03:22:48.044Z,10.63
2022-10-30T03:25:24.317Z,10.47
2022-10-30T03:28:05.531Z,10.49
2022-10-30T03:30:35.379Z,10.58
2022-10-30T03:33:06.873Z,10.90
2022-10-30T03:35:41.547Z,10.70
2022-10-30T03:38:11.587Z,10.69
2022-10-30T03:40:44.106Z,10.84
2022-10-30T03:43:19.846Z,10.63
2022-10-30T03:45:57.785Z,10.74
2022-10-30T03:48:34.172Z,10.43
2022-10-30T03:51:10.043Z,10.89
2022-10-30T03:53:41.799Z,10.87
2022-10-30T03:56:22.474Z,10.71
2022-10-30T03:59:07.607Z,10.64
2022-10-30T04:01:44.043Z,10.68
2022-10-30T04:04:23.118Z,10.72
2022-10-30T04:07:14.651Z,11.04
2022-10-30T04:09:59.989Z,10.80
2022-10-30T04:12:40.633Z,10.88
2022-10-30T04:15:11.628Z,11.02
2022-10-30T04:17:55.130Z,10.76
2022-10-30T04:20:45.529Z,10.54
2022-10-30T04:23:21.861Z,10.52
2022-10-30T04:25:53.200Z,10.58
2022-10-30T04:28:25.636Z,10.83
2022-10-30T04:31:02.279Z,10.84
2022-10-30T04:33:39.277Z,10.82
2022-10-30T04:36:11.693Z,10.86
2022-10-30T04:38:44.919Z,10.54
2022-10-30T04:41:18.719Z,10.47
2022-10-30T04:43:59.661Z,10.47
2022-10-30T04:46:35.539Z,10.51
2022-10-30T04:49:13.758Z,10.98
2022-10-30T04:51:47.954Z,11.08
2022-10-30T04:54:20.156Z,10.61
2022-10-30T04:57:00.571Z,10.77
2022-10-30T04:59:33.294Z,10.45
2022-10-30T05:02:07.371Z,10.61
2022-10-30T05:04:40.001Z,11.07
2022-10-30T05:07:10.334Z,10.97
2022-10-30T05:09:43.520Z,11.00
2022-10-30T05:12:23.895Z,10.89
2022-10-30T05:15:07.855Z,11.08
2022-10-30T05:17:46.500Z,10.60
2022-10-30T05:20:23.215Z,10.95
2022-10-30T05:23:08.035Z,11.08
2022-10-30T05:25:43.692Z,10.84
2022-10-30T05:28:23.054Z,10.61
2022-10-30T05:31:04.234Z,10.86
2022-10-30T05:33:55.731Z,10.78
2022-10-30T05:36:39.888Z,10.42
2022-10-30T05:39:15.541Z,10.42
2022-10-30T05:41:51.933Z,10.70
2022-10-30T05:44:40.614Z,11.01
2022-10-30T05:47:15.499Z,10.70
2022-10-30T05:50:10.577Z,11.23
2022-10-30T05:52:41.519Z,11.23
2022-10-30T05:55:14.918Z,10.74
2022-10-30T05:58:03.579Z,11.32
2022-10-30T06:00:39.108Z,11.10
2022-10-30T06:03:16.271Z,11.03
2022-10-30T06:05:52.883Z,10.90
2022-10-30T06:08:25.021Z,11.20
2022-10-30T06:11:12.359Z,11.06
2022-10-30T06:13:49.645Z,10.87
2022-10-30T06:19:18.608Z,10.91
2022-10-30T06:21:55.653Z,10.99
2022-10-30T06:25:15.003Z,10.98
2022-10-30T06:28:03.146Z,11.37
2022-10-30T06:30:35.923Z,11.20
2022-10-30T06:33:15.899Z,11.34
2022-10-30T06:36:07.773Z,11.32
2022-10-30T06:38:43.929Z,11.12
2022-10-30T06:41:26.194Z,10.85
2022-10-30T06:44:35.045Z,11.06
2022-10-30T06:47:24.108Z,11.44
2022-10-30T06:49:56.631Z,11.29
2022-10-30T06:52:34.335Z,11.19
2022-10-30T06:55:19.912Z,11.21
2022-10-30T06:58:14.073Z,11.11
2022-10-30T07:01:18.550Z,11.46
2022-10-30T07:04:04.225Z,11.14
2022-10-30T07:06:38.547Z,11.20
2022-10-30T07:09:19.353Z,11.38
2022-10-30T07:11:56.593Z,11.33
2022-10-30T07:14:43.093Z,11.16
2022-10-30T07:17:39.924Z,11.53
2022-10-30T07:20:21.512Z,11.41
2022-10-30T07:22:52.304Z,11.00
2022-10-30T07:25:31.620Z,11.28
2022-10-30T07:34:10.605Z,11.49
2022-10-30T07:37:23.392Z,11.24
2022-10-30T07:40:19.290Z,11.07
2022-10-30T07:43:23.543Z,11.41
2022-10-30T07:46:13.739Z,11.14
2022-10-30T07:49:01.745Z,11.34
2022-10-30T07:51:43.986Z,11.48
2022-10-30T07:54:16.195Z,11.46
2022-10-30T07:56:52.288Z,11.39
2022-10-30T07:59:41.966Z,11.42
2022-10-30T08:02:30.847Z,11.28
2022-10-30T08:05:30.373Z,11.30
2022-10-30T08:08:23.643Z,11.34
2022-10-30T08:11:05.828Z,11.77
2022-10-30T08:13:41.414Z,11.33
2022-10-30T08:16:13.874Z,11.63
2022-10-30T08:18:44.077Z,11.37
2022-10-30T08:21:17.497Z,11.23
2022-10-30T08:24:08.150Z,11.08
2022-10-30T08:26:53.996Z,11.23
2022-10-30T08:29:35.695Z,11.26
2022-10-30T08:32:07.501Z,10.81
2022-10-30T08:35:19.880Z,11.16
2022-10-30T08:37:53.923Z,11.26
2022-10-30T08:40:23.925Z,11.20
2022-10-30T08:43:06.057Z,11.28
2022-10-30T08:45:39.322Z,11.15
2022-10-30T08:48:13.820Z,11.32
2022-10-30T08:50:50.106Z,11.50
2022-10-30T08:53:45.975Z,11.12
2022-10-30T08:56:25.499Z,11.25
2022-10-30T08:59:15.848Z,11.10
2022-10-30T09:01:56.065Z,10.90
2022-10-30T09:04:30.457Z,11.06
2022-10-30T09:07:18.575Z,11.17
2022-10-30T09:10:10.968Z,10.97
2022-10-30T09:12:43.976Z,11.14
2022-10-30T09:15:18.519Z,11.29
2022-10-30T09:18:02.373Z,11.56
2022-10-30T09:20:39.584Z,11.49
2022-10-30T09:23:13.817Z,11.36
2022-10-30T09:25:43.986Z,11.43
2022-10-30T09:28:44.438Z,11.41
2022-10-30T09:31:32.181Z,11.24
2022-10-30T09:34:07.799Z,10.82
2022-10-30T09:36:47.564Z,10.97
2022-10-30T09:39:19.665Z,10.95
2022-10-30T09:42:08.016Z,10.74
2022-10-30T09:45:27.855Z,11.05
2022-10-30T09:48:05.983Z,11.17
2022-10-30T09:51:18.370Z,11.36
2022-10-30T09:53:54.309Z,11.29
2022-10-30T09:56:51.667Z,11.49
2022-10-30T09:59:41.965Z,11.58
2022-10-30T10:02:26.247Z,11.45
2022-10-30T10:05:06.141Z,11.52
2022-10-30T10:08:07.674Z,11.30
2022-10-30T10:11:17.996Z,11.38
2022-10-30T10:14:07.079Z,11.11
2022-10-30T10:16:41.102Z,11.20
2022-10-30T10:19:33.855Z,11.32
2022-10-30T10:22:15.476Z,11.43
2022-10-30T10:24:50.808Z,11.20
2022-10-30T10:27:33.127Z,10.99
2022-10-30T10:30:05.946Z,11.26
2022-10-30T10:32:44.512Z,11.35
2022-10-30T10:35:31.559Z,11.36
2022-10-30T10:38:19.919Z,11.92
2022-10-30T10:40:49.803Z,11.55
2022-10-30T10:43:34.093Z,11.45
2022-10-30T10:46:21.981Z,10.93
2022-10-30T10:49:02.178Z,10.98
2022-10-30T10:51:43.647Z,10.90
2022-10-30T10:54:19.723Z,11.26
2022-10-30T10:56:55.546Z,10.46
2022-10-30T10:59:34.086Z,10.88
2022-10-30T11:02:15.172Z,11.14
2022-10-30T11:04:49.663Z,11.17
2022-10-30T11:07:25.939Z,11.08
2022-10-30T11:10:03.785Z,11.15
2022-10-30T11:12:37.140Z,11.18
2022-10-30T11:15:24.044Z,11.23
2022-10-30T11:17:56.360Z,11.12
2022-10-30T11:20:39.550Z,11.26
2022-10-30T11:23:31.377Z,11.13
2022-10-30T11:26:03.885Z,11.17
2022-10-30T11:28:48.931Z,11.47
2022-10-30T11:31:35.795Z,11.29
2022-10-30T11:34:19.312Z,11.31
2022-10-30T11:36:53.744Z,11.46
2022-10-30T11:39:23.464Z,11.42
2022-10-30T11:42:04.985Z,11.29
2022-10-30T11:44:37.326Z,11.18
2022-10-30T11:47:10.058Z,11.19
2022-10-30T11:49:53.922Z,11.42
2022-10-30T11:52:25.087Z,11.08
2022-10-30T11:55:07.049Z,11.09
2022-10-30T11:57:45.968Z,11.44
2022-10-30T12:00:19.710Z,11.54
2022-10-30T12:03:07.872Z,11.42
2022-10-30T12:05:45.125Z,11.46
2022-10-30T12:08:21.810Z,11.43
2022-10-30T12:10:54.590Z,11.45
2022-10-30T12:13:25.040Z,11.76
2022-10-30T12:16:09.874Z,11.62
2022-10-30T12:19:01.928Z,11.43
2022-10-30T12:25:43.802Z,11.85
2022-10-30T12:29:17.962Z,11.65
2022-10-30T12:31:55.888Z,11.39
2022-10-30T12:34:31.046Z,11.52
2022-10-30T12:37:08.547Z,11.55
2022-10-30T12:40:13.641Z,11.61
2022-10-30T12:42:51.113Z,11.39
2022-10-30T12:45:31.424Z,11.33
2022-10-30T12:48:06.286Z,11.51
2022-10-30T12:50:52.055Z,11.64
2022-10-30T12:53:41.933Z,11.43
2022-10-30T12:56:15.969Z,10.90
2022-10-30T12:58:55.580Z,11.29
2022-10-30T13:01:34.576Z,11.16
2022-10-30T13:04:22.135Z,11.71
2022-10-30T13:06:55.888Z,11.37
2022-10-30T13:09:35.508Z,10.88
2022-10-30T13:12:39.687Z,11.40
2022-10-30T13:15:20.025Z,11.06
2022-10-30T13:17:51.736Z,11.44
2022-10-30T13:20:25.940Z,11.36
2022-10-30T13:23:02.349Z,11.02
2022-10-30T13:25:48.093Z,11.40
2022-10-30T13:28:38.183Z,11.33
2022-10-30T13:31:28.012Z,11.22
2022-10-30T13:34:02.903Z,11.15
2022-10-30T13:36:41.977Z,10.08
2022-10-30T13:39:31.212Z,10.19
2022-10-30T13:46:45.728Z,10.92
2022-10-30T13:49:33.462Z,10.42
2022-10-30T13:52:02.659Z,10.21
2022-10-30T13:54:47.230Z,10.27
2022-10-30T13:57:27.709Z,10.14
2022-10-30T14:00:00.109Z,10.48
2022-10-30T14:02:35.529Z,10.12
2022-10-30T14:05:18.335Z,10.57
2022-10-30T14:08:20.869Z,10.36
2022-10-30T14:11:00.895Z,10.82
2022-10-30T14:13:47.448Z,10.44
2022-10-30T14:16:38.053Z,10.79
2022-10-30T14:19:07.652Z,10.92
2022-10-30T14:21:53.637Z,10.63
2022-10-30T14:24:46.200Z,10.18
2022-10-30T14:27:19.096Z,10.05
2022-10-30T14:29:52.096Z,10.01
2022-10-30T14:32:21.470Z,10.07
2022-10-30T14:34:53.068Z,10.13
2022-10-30T14:37:24.124Z,10.20
2022-10-30T14:39:54.443Z,10.15
2022-10-30T14:42:31.071Z,10.18
2022-10-30T14:45:15.769Z,9.98
2022-10-30T14:47:47.299Z,10.04
2022-10-30T14:50:29.508Z,9.95
2022-10-30T14:53:16.212Z,9.63
2022-10-30T14:55:55.109Z,9.37
2022-10-30T14:58:30.604Z,9.80
2022-10-30T15:01:06.283Z,9.42
2022-10-30T15:03:41.128Z,9.51
2022-10-30T15:06:15.885Z,9.70
2022-10-30T15:09:03.707Z,9.20
2022-10-30T15:11:43.449Z,8.57
2022-10-30T15:14:40.009Z,9.33
2022-10-30T15:17:29.295Z,9.16
2022-10-30T15:20:05.710Z,9.02
2022-10-30T15:22:36.380Z,9.33
2022-10-30T15:25:06.693Z,8.95
2022-10-30T15:28:44.042Z,9.04
2022-10-30T15:31:19.275Z,8.94
2022-10-30T15:33:47.896Z,9.11
2022-10-30T15:36:24.993Z,9.12
2022-10-30T15:39:13.884Z,9.35
2022-10-30T15:42:02.530Z,8.96
2022-10-30T15:44:42.286Z,9.40
2022-10-30T15:47:23.087Z,9.38
2022-10-30T15:50:52.869Z,9.21
2022-10-30T15:53:26.543Z,9.29
2022-10-30T15:56:01.437Z,9.36
2022-10-30T15:58:35.135Z,9.42
2022-10-30T16:01:08.665Z,9.12
2022-10-30T16:03:48.383Z,9.37
2022-10-30T16:06:19.100Z,8.75
2022-10-30T16:08:51.827Z,9.24
2022-10-30T16:11:27.431Z,9.14
2022-10-30T16:13:55.462Z,9.11
2022-10-30T16:16:29.725Z,9.14
2022-10-30T16:19:06.071Z,9.22
2022-10-30T16:21:38.627Z,8.71
2022-10-30T16:24:10.723Z,8.98
2022-10-30T16:26:42.536Z,9.24
2022-10-30T16:29:13.485Z,9.04
2022-10-30T16:31:50.674Z,8.81
2022-10-30T16:34:38.451Z,9.02
2022-10-30T16:37:09.440Z,8.72
2022-10-30T16:39:46.318Z,8.88
2022-10-30T16:42:27.383Z,8.64
2022-10-30T16:45:15.169Z,8.78
2022-10-30T16:47:48.500Z,8.80
2022-10-30T16:50:19.057Z,8.71
2022-10-30T16:52:47.527Z,8.95
2022-10-30T16:55:21.470Z,8.90
2022-10-30T16:57:55.341Z,9.08
2022-10-30T17:00:27.222Z,9.08
2022-10-30T17:03:07.372Z,8.96
2022-10-30T17:05:43.720Z,9.02
2022-10-30T17:08:15.669Z,9.01
2022-10-30T17:11:06.839Z,8.82
2022-10-30T17:13:57.882Z,8.71
2022-10-30T17:16:29.727Z,8.87
2022-10-30T17:18:59.709Z,8.73
2022-10-30T17:21:40.925Z,8.72
2022-10-30T17:24:20.411Z,8.63
2022-10-30T17:26:58.011Z,8.52
2022-10-30T17:29:38.794Z,8.52
2022-10-30T17:32:22.804Z,8.50
2022-10-30T17:35:25.741Z,8.78
2022-10-30T17:38:01.605Z,8.47
2022-10-30T17:40:31.579Z,8.52
2022-10-30T17:43:03.219Z,8.62
2022-10-30T17:45:31.928Z,8.69
2022-10-30T17:48:00.772Z,8.63
2022-10-30T17:50:29.932Z,8.15
2022-10-30T17:53:03.968Z,8.15
2022-10-30T17:55:39.449Z,8.32
2022-10-30T17:58:07.576Z,8.24
2022-10-30T18:00:37.812Z,8.25
2022-10-30T18:03:07.157Z,8.70
2022-10-30T18:05:37.531Z,8.74
2022-10-30T18:08:07.537Z,8.66
2022-10-30T18:10:39.660Z,8.57
2022-10-30T18:13:10.928Z,8.33
2022-10-30T18:16:02.272Z,8.48
2022-10-30T18:18:33.994Z,8.45
2022-10-30T18:21:04.263Z,8.44
2022-10-30T18:23:57.704Z,8.50
2022-10-30T18:26:36.321Z,8.29
2022-10-30T18:29:08.544Z,7.90
2022-10-30T18:31:42.340Z,7.81
2022-10-30T18:34:17.734Z,8.10
2022-10-30T18:36:51.423Z,7.08
2022-10-30T18:39:22.915Z,6.96
2022-10-30T18:41:58.725Z,7.84
2022-10-30T18:44:31.549Z,7.56
2022-10-30T18:47:08.536Z,7.33
2022-10-30T18:49:39.381Z,7.67
2022-10-30T18:52:12.595Z,7.75
2022-10-30T18:54:43.751Z,8.27
2022-10-30T18:57:13.341Z,7.37
2022-10-30T18:59:46.089Z,7.99
2022-10-30T19:02:25.010Z,8.63
2022-10-30T19:05:00.819Z,8.29
2022-10-30T19:07:32.338Z,8.36
2022-10-30T19:10:03.604Z,8.50
2022-10-30T19:12:38.448Z,8.35
2022-10-30T19:15:19.678Z,8.11
2022-10-30T19:17:48.388Z,8.11
2022-10-30T19:21:05.086Z,7.81
2022-10-30T19:23:39.445Z,7.80
2022-10-30T19:28:39.158Z,8.09
2022-10-30T19:31:20.234Z,8.09
2022-10-30T19:33:59.293Z,8.14
2022-10-30T19:36:37.505Z,7.69
2022-10-30T19:39:14.910Z,8.06
2022-10-30T19:41:43.916Z,8.03
2022-10-30T19:44:14.782Z,7.59
2022-10-30T19:46:43.963Z,8.17
2022-10-30T19:49:15.700Z,7.99
2022-10-30T19:51:45.987Z,8.05
2022-10-30T19:54:14.822Z,7.78
2022-10-30T19:56:47.281Z,7.46
2022-10-30T19:59:18.426Z,7.34
2022-10-30T20:01:48.069Z,7.96
2022-10-30T20:04:21.674Z,8.03
2022-10-30T20:06:51.461Z,7.96
2022-10-30T20:09:19.898Z,7.67
2022-10-30T20:11:51.912Z,7.84
2022-10-30T20:14:22.794Z,8.08
2022-10-30T20:17:00.059Z,7.70
2022-10-30T20:19:40.179Z,7.66
2022-10-30T20:22:16.225Z,7.80
2022-10-30T20:24:46.068Z,7.73
2022-10-30T20:27:15.528Z,7.86
2022-10-30T20:29:44.205Z,8.13
2022-10-30T20:32:14.138Z,7.90
2022-10-30T20:34:47.743Z,8.15
2022-10-30T20:37:17.968Z,7.63
2022-10-30T20:39:46.899Z,7.88
2022-10-30T20:42:16.490Z,7.72
2022-10-30T20:44:46.378Z,7.81
2022-10-30T20:47:18.776Z,8.33
2022-10-30T20:49:47.983Z,7.84
2022-10-30T20:52:18.060Z,8.19
2022-10-30T20:54:47.508Z,7.81
2022-10-30T20:57:15.597Z,8.03
2022-10-30T20:59:51.617Z,7.77
2022-10-30T21:02:24.835Z,6.64
2022-10-30T21:05:11.414Z,6.61
2022-10-30T21:07:50.137Z,7.37
2022-10-30T21:10:25.434Z,7.92
2022-10-30T21:13:03.521Z,7.81
2022-10-30T21:15:36.297Z,7.83
2022-10-30T21:18:06.119Z,8.46
2022-10-30T21:20:36.662Z,7.90
2022-10-30T21:23:08.894Z,8.36
2022-10-30T21:25:39.860Z,8.13
2022-10-30T21:28:10.952Z,8.28
2022-10-30T21:30:39.977Z,7.97
2022-10-30T21:33:09.969Z,8.41
2022-10-30T21:35:39.109Z,8.19
2022-10-30T21:38:10.339Z,8.50
2022-10-30T21:40:39.400Z,8.26
2022-10-30T21:43:09.865Z,8.22
2022-10-30T21:45:39.428Z,8.43
2022-10-30T21:48:07.886Z,8.34
2022-10-30T21:51:02.727Z,8.12
2022-10-30T21:53:31.925Z,8.51
2022-10-30T21:56:04.825Z,8.34
2022-10-30T21:58:33.907Z,8.36
2022-10-30T22:01:04.868Z,8.16
2022-10-30T22:03:35.644Z,8.09
2022-10-30T22:06:08.463Z,8.08
2022-10-30T22:08:38.848Z,8.23
2022-10-30T22:11:09.609Z,8.29
2022-10-30T22:13:39.495Z,8.33
2022-10-30T22:16:11.252Z,8.67
2022-10-30T22:18:41.252Z,8.51
2022-10-30T22:21:14.306Z,8.37
2022-10-30T22:23:46.403Z,8.37
2022-10-30T22:26:17.347Z,8.31
2022-10-30T22:28:56.452Z,8.54
2022-10-30T22:31:30.528Z,8.68
2022-10-30T22:34:04.731Z,8.90
2022-10-30T22:36:36.513Z,8.72
2022-10-30T22:39:08.106Z,8.89
2022-10-30T22:41:38.484Z,9.03
2022-10-30T22:44:09.365Z,8.82
2022-10-30T22:46:38.423Z,8.84
2022-10-30T22:49:09.576Z,8.84
2022-10-30T22:51:43.502Z,8.88
2022-10-30T22:54:15.811Z,8.97
2022-10-30T22:56:46.932Z,8.85
2022-10-30T22:59:16.970Z,8.90
2022-10-30T23:01:47.633Z,8.96
2022-10-30T23:04:18.549Z,8.99
2022-10-30T23:06:48.005Z,8.99
2022-10-30T23:09:19.513Z,9.23
2022-10-30T23:11:51.395Z,9.06
2022-10-30T23:14:20.115Z,9.06
2022-10-30T23:16:56.086Z,9.25
2022-10-30T23:19:33.991Z,9.28
2022-10-30T23:22:06.567Z,9.16
2022-10-30T23:24:43.105Z,9.04
2022-10-30T23:27:22.181Z,8.99
2022-10-30T23:29:56.581Z,9.12
2022-10-30T23:32:36.955Z,9.29
2022-10-30T23:35:10.811Z,9.22
2022-10-30T23:37:42.688Z,9.34
2022-10-30T23:40:12.206Z,9.37
2022-10-30T23:42:44.642Z,9.34
2022-10-30T23:45:22.358Z,9.43
2022-10-30T23:47:54.559Z,9.23
2022-10-30T23:50:27.759Z,9.22
2022-10-30T23:53:06.235Z,9.49
2022-10-30T23:55:47.224Z,9.29
